Time;durP1;ratioP1;P1;durP2;ratioP2;P2;SDS_P1;SDS_P2;PMS_P1;PMS_P2;Temp;Humidity;BMP_temperature;BMP_pressure;BME280_temperature;BME280_humidity;BME280_pressure;Samples;Min_cycle;Max_cycle;Signal;HPM_P1;HPM_P2
2021/07/27 00:00:37;;;;;;;5.10;4.53;;;15.80;99.90;;;;;;5012818;28;20041;-72
2021/07/27 00:03:03;;;;;;;6.00;4.20;;;15.70;99.90;;;;;;5013493;28;20033;-72
2021/07/27 00:05:30;;;;;;;12.07;4.93;;;15.70;99.90;;;;;;5012917;28;20570;-71
2021/07/27 00:07:56;;;;;;;8.30;4.72;;;15.70;99.90;;;;;;5013750;28;20026;-71
2021/07/27 00:10:27;;;;;;;9.90;5.15;;;15.60;99.90;;;;;;5013364;28;20026;-71
2021/07/27 00:12:53;;;;;;;5.57;4.95;;;15.60;99.90;;;;;;5013655;28;20018;-71
2021/07/27 00:15:18;;;;;;;9.85;4.50;;;15.50;99.90;;;;;;5012975;28;20033;-71
2021/07/27 00:17:44;;;;;;;11.45;4.90;;;15.40;99.90;;;;;;5013620;28;20496;-71
2021/07/27 00:20:10;;;;;;;8.57;5.63;;;15.40;99.90;;;;;;5012909;28;20037;-70
2021/07/27 00:22:42;;;;;;;6.40;5.22;;;15.40;99.90;;;;;;5013404;28;20017;-72
2021/07/27 00:25:09;;;;;;;10.20;5.78;;;15.50;99.90;;;;;;5012900;28;20076;-71
2021/07/27 00:27:37;;;;;;;10.85;5.75;;;15.50;99.90;;;;;;5013372;28;20041;-71
2021/07/27 00:30:06;;;;;;;10.80;5.25;;;15.40;99.90;;;;;;5012870;28;20088;-72
2021/07/27 00:32:34;;;;;;;9.60;5.85;;;15.40;99.90;;;;;;5012626;28;20403;-72
2021/07/27 00:35:00;;;;;;;9.68;6.40;;;15.40;99.90;;;;;;5012719;28;20041;-70
2021/07/27 00:37:29;;;;;;;9.82;5.70;;;15.40;99.90;;;;;;5012882;28;20058;-71
2021/07/27 00:39:55;;;;;;;9.07;5.28;;;15.40;99.90;;;;;;5013046;28;20026;-71
2021/07/27 00:42:21;;;;;;;10.30;5.05;;;15.20;99.90;;;;;;5013135;28;20022;-71
2021/07/27 00:44:47;;;;;;;6.45;5.30;;;15.30;99.90;;;;;;4989265;28;20034;-70
2021/07/27 00:47:12;;;;;;;10.98;6.18;;;15.30;99.90;;;;;;4993040;28;20101;-71
2021/07/27 00:49:38;;;;;;;14.45;5.80;;;15.20;99.90;;;;;;4993337;28;20073;-70
2021/07/27 00:52:05;;;;;;;9.25;6.90;;;15.20;99.90;;;;;;4993149;28;20045;-72
2021/07/27 00:54:31;;;;;;;14.43;8.45;;;15.30;99.90;;;;;;4992568;28;20481;-72
2021/07/27 00:56:57;;;;;;;17.08;6.95;;;15.30;99.90;;;;;;4975796;28;20137;-72
2021/07/27 00:59:22;;;;;;;15.85;7.20;;;15.30;99.90;;;;;;4993014;28;20027;-71
2021/07/27 01:01:48;;;;;;;10.45;6.03;;;15.30;99.90;;;;;;4992640;28;20030;-71
2021/07/27 01:04:14;;;;;;;16.95;6.97;;;15.30;99.90;;;;;;4975386;28;20031;-70
2021/07/27 01:06:40;;;;;;;10.98;6.15;;;15.20;99.90;;;;;;4975341;28;20076;-73
2021/07/27 01:09:05;;;;;;;11.65;7.13;;;15.20;99.90;;;;;;4992822;28;20022;-71
2021/07/27 01:11:31;;;;;;;9.73;6.97;;;15.20;99.90;;;;;;4992727;28;20077;-72
2021/07/27 01:13:56;;;;;;;12.40;6.93;;;15.10;99.90;;;;;;4992736;28;20562;-71
2021/07/27 01:16:28;;;;;;;15.45;7.65;;;15.10;99.90;;;;;;5010158;28;20084;-71
2021/07/27 01:38:40;;;;;;;13.98;7.43;;;14.90;99.90;;;;;;5011908;28;20457;-71
2021/07/27 01:43:21;;;;;;;14.25;7.75;;;14.90;99.90;;;;;;5011849;28;20379;-72
2021/07/27 01:45:48;;;;;;;17.58;7.68;;;14.80;99.90;;;;;;5011228;28;20033;-72
2021/07/27 01:48:16;;;;;;;18.75;7.93;;;14.80;99.90;;;;;;5011608;28;20488;-72
2021/07/27 01:50:42;;;;;;;22.02;7.90;;;14.80;99.90;;;;;;5011893;28;20026;-72
2021/07/27 01:53:09;;;;;;;17.70;7.55;;;14.80;99.90;;;;;;5011864;28;20101;-72
2021/07/27 01:55:35;;;;;;;12.13;7.75;;;14.80;99.90;;;;;;5011153;28;20515;-72
2021/07/27 01:58:01;;;;;;;9.75;6.88;;;14.80;99.90;;;;;;5011560;28;20061;-71
2021/07/27 02:00:27;;;;;;;10.23;6.68;;;14.70;99.90;;;;;;5010990;28;20149;-71
2021/07/27 02:02:52;;;;;;;11.68;7.65;;;14.70;99.90;;;;;;5011449;28;20646;-71
2021/07/27 02:05:18;;;;;;;7.75;6.95;;;14.60;99.90;;;;;;5011057;28;20018;-71
2021/07/27 02:07:55;;;;;;;11.32;6.78;;;14.60;99.90;;;;;;5011667;28;20040;-71
2021/07/27 02:10:21;;;;;;;7.85;6.28;;;14.60;99.90;;;;;;5011524;28;20026;-71
2021/07/27 02:12:52;;;;;;;13.48;7.57;;;14.60;99.90;;;;;;5011315;28;20113;-71
2021/07/27 02:15:20;;;;;;;14.23;6.85;;;14.50;99.90;;;;;;5010926;28;20037;-71
2021/07/27 02:17:47;;;;;;;7.90;6.97;;;14.50;99.90;;;;;;5011431;28;20106;-72
2021/07/27 02:20:13;;;;;;;17.33;8.13;;;14.60;99.90;;;;;;5011468;28;20026;-71
2021/07/27 02:22:39;;;;;;;11.93;8.32;;;14.70;99.90;;;;;;4993828;28;20030;-71
2021/07/27 02:25:06;;;;;;;15.88;8.23;;;14.70;99.90;;;;;;5013031;28;20084;-71
2021/07/27 02:27:32;;;;;;;13.98;8.43;;;14.70;99.90;;;;;;5015381;28;20050;-71
2021/07/27 02:29:58;;;;;;;19.35;10.05;;;14.70;99.90;;;;;;5015355;28;20053;-71
2021/07/27 02:32:23;;;;;;;17.52;8.50;;;14.70;99.90;;;;;;5015005;28;20559;-72
2021/07/27 02:34:49;;;;;;;15.43;9.38;;;14.60;99.90;;;;;;5014722;28;20037;-72
2021/07/27 02:37:15;;;;;;;26.38;10.32;;;14.60;99.90;;;;;;5015463;28;20057;-71
2021/07/27 02:39:41;;;;;;;17.35;11.30;;;14.60;99.90;;;;;;5015209;28;20022;-71
2021/07/27 02:42:07;;;;;;;16.65;9.90;;;14.60;99.90;;;;;;4997590;28;20034;-71
2021/07/27 02:44:32;;;;;;;21.45;9.93;;;14.60;99.90;;;;;;5014664;28;20472;-71
2021/07/27 02:47:01;;;;;;;13.23;8.95;;;14.50;99.90;;;;;;5014949;28;20053;-71
2021/07/27 02:49:27;;;;;;;18.63;10.07;;;14.50;99.90;;;;;;5015036;28;20021;-71
2021/07/27 02:51:52;;;;;;;15.38;9.18;;;14.50;99.90;;;;;;5015242;28;20021;-72
2021/07/27 02:54:18;;;;;;;21.92;9.70;;;14.40;99.90;;;;;;5014524;28;20097;-71
2021/07/27 02:56:44;;;;;;;17.33;10.43;;;14.50;99.90;;;;;;5015004;28;20365;-71
2021/07/27 02:59:09;;;;;;;24.52;10.13;;;14.50;99.90;;;;;;5014766;28;20534;-71
2021/07/27 03:01:35;;;;;;;14.50;7.93;;;14.50;99.90;;;;;;4995328;28;20041;-71
2021/07/27 03:04:01;;;;;;;11.65;8.23;;;14.40;99.90;;;;;;4994901;28;20027;-71
2021/07/27 03:06:28;;;;;;;12.93;7.80;;;14.30;99.90;;;;;;4994645;28;20034;-71
2021/07/27 03:11:20;;;;;;;8.82;6.40;;;14.20;99.90;;;;;;4995279;28;20464;-71
2021/07/27 03:13:46;;;;;;;13.95;7.13;;;14.10;99.90;;;;;;4995132;28;20022;-71
2021/07/27 03:16:21;;;;;;;16.45;7.50;;;14.10;99.90;;;;;;4994781;28;20034;-72
2021/07/27 03:18:49;;;;;;;14.88;8.27;;;14.20;99.90;;;;;;4995038;28;20033;-71
2021/07/27 03:21:19;;;;;;;12.90;9.13;;;14.20;99.90;;;;;;4995139;28;20117;-71
2021/07/27 03:23:46;;;;;;;18.98;9.00;;;14.30;99.90;;;;;;4995007;28;20034;-71
2021/07/27 03:26:12;;;;;;;16.88;11.40;;;14.40;99.90;;;;;;4994463;28;20030;-71
2021/07/27 03:28:40;;;;;;;17.85;11.27;;;14.50;99.90;;;;;;4994849;28;20380;-71
2021/07/27 03:31:06;;;;;;;19.25;11.48;;;14.50;99.90;;;;;;4994727;28;20102;-71
2021/07/27 03:33:31;;;;;;;26.23;11.55;;;14.40;99.90;;;;;;4994350;28;20117;-72
2021/07/27 03:35:57;;;;;;;19.00;10.98;;;14.50;99.90;;;;;;4993888;28;20034;-70
2021/07/27 03:38:23;;;;;;;16.23;8.98;;;14.40;99.90;;;;;;4994629;28;20022;-71
2021/07/27 03:40:48;;;;;;;26.85;10.40;;;14.30;99.90;;;;;;5012417;28;20036;-70
2021/07/27 03:43:14;;;;;;;18.90;10.40;;;14.30;99.90;;;;;;5013522;28;20030;-71
2021/07/27 03:45:40;;;;;;;16.20;8.77;;;14.20;99.90;;;;;;5013774;28;20034;-72
2021/07/27 03:48:06;;;;;;;8.48;7.28;;;14.20;99.90;;;;;;5005956;28;20064;-71
2021/07/27 03:50:31;;;;;;;13.15;7.97;;;14.20;99.90;;;;;;5007411;28;20022;-71
2021/07/27 03:52:57;;;;;;;15.70;9.20;;;14.30;99.90;;;;;;5013521;28;20044;-71
2021/07/27 03:55:23;;;;;;;17.88;8.75;;;14.30;99.90;;;;;;4999804;28;20026;-73
2021/07/27 03:57:53;;;;;;;12.52;9.32;;;14.30;99.90;;;;;;4994136;28;20033;-72
2021/07/27 04:00:19;;;;;;;12.73;8.98;;;14.30;99.90;;;;;;4993998;28;20481;-71
2021/07/27 04:02:44;;;;;;;14.05;10.02;;;14.40;99.90;;;;;;5011877;28;20026;-72
2021/07/27 04:05:10;;;;;;;14.32;10.13;;;14.40;99.90;;;;;;5013072;28;20034;-73
2021/07/27 04:07:36;;;;;;;22.88;10.27;;;14.50;99.90;;;;;;5000209;28;20026;-73
2021/07/27 04:10:06;;;;;;;16.50;10.65;;;14.40;99.90;;;;;;4993773;28;20030;-72
2021/07/27 04:12:35;;;;;;;13.70;10.35;;;14.40;99.90;;;;;;4995979;28;20027;-73
2021/07/27 04:15:00;;;;;;;18.67;10.77;;;14.40;99.90;;;;;;4998893;28;20046;-74
2021/07/27 04:17:26;;;;;;;24.10;10.77;;;14.40;99.90;;;;;;4994244;28;20104;-74
2021/07/27 04:19:52;;;;;;;13.82;10.38;;;14.40;99.90;;;;;;4993146;28;20607;-72
2021/07/27 04:22:17;;;;;;;20.85;10.88;;;14.40;99.90;;;;;;4993619;28;20061;-73
2021/07/27 04:24:43;;;;;;;19.33;11.18;;;14.40;99.90;;;;;;4992974;28;20516;-72
2021/07/27 04:27:09;;;;;;;22.52;11.15;;;14.50;99.90;;;;;;4993467;28;20031;-69
2021/07/27 04:29:34;;;;;;;18.10;10.23;;;14.50;99.90;;;;;;4993106;28;20026;-72
2021/07/27 04:32:00;;;;;;;13.70;8.95;;;14.50;99.90;;;;;;5006026;28;20034;-73
2021/07/27 04:34:26;;;;;;;15.38;8.77;;;14.50;99.90;;;;;;5012958;28;20030;-72
2021/07/27 04:36:52;;;;;;;9.20;7.93;;;14.80;99.90;;;;;;5014452;28;20034;-72
2021/07/27 04:39:18;;;;;;;11.95;6.70;;;14.90;99.90;;;;;;5013578;28;20460;-70
2021/07/27 04:41:44;;;;;;;9.50;7.32;;;15.00;99.90;;;;;;5013560;28;20451;-71
2021/07/27 04:44:09;;;;;;;9.93;7.55;;;14.90;99.90;;;;;;5020082;28;20496;-71
2021/07/27 04:46:38;;;;;;;13.13;7.90;;;15.00;99.90;;;;;;5019105;28;20033;-72
2021/07/27 04:49:04;;;;;;;11.13;7.35;;;15.00;99.90;;;;;;5012910;28;20022;-72
2021/07/27 04:51:30;;;;;;;13.18;8.02;;;14.80;99.90;;;;;;5013031;28;20640;-71
2021/07/27 04:53:58;;;;;;;13.93;8.13;;;14.80;99.90;;;;;;5025323;28;20037;-71
2021/07/27 04:56:25;;;;;;;18.08;10.10;;;14.70;99.90;;;;;;5024786;28;20030;-72
2021/07/27 04:58:51;;;;;;;15.73;9.90;;;14.80;99.90;;;;;;5013880;28;20029;-72
2021/07/27 05:01:17;;;;;;;19.67;10.95;;;14.90;99.90;;;;;;5012466;28;20133;-72
2021/07/27 05:03:43;;;;;;;16.75;10.63;;;14.90;99.90;;;;;;5012714;28;20080;-75
2021/07/27 05:06:09;;;;;;;21.35;11.52;;;14.90;99.90;;;;;;5012312;28;20021;-74
2021/07/27 05:08:35;;;;;;;24.20;10.85;;;14.90;99.90;;;;;;4994890;28;20430;-75
2021/07/27 05:11:01;;;;;;;26.60;12.20;;;15.00;99.90;;;;;;5012845;28;20026;-75
2021/07/27 05:13:27;;;;;;;20.52;12.20;;;15.00;99.90;;;;;;5012348;28;20093;-75
2021/07/27 05:15:53;;;;;;;21.73;12.13;;;14.90;99.90;;;;;;5011634;28;20053;-74
2021/07/27 05:18:19;;;;;;;25.58;12.10;;;15.00;99.90;;;;;;5011068;28;20060;-70
2021/07/27 05:20:45;;;;;;;17.95;11.63;;;15.00;99.90;;;;;;5012595;28;20045;-72
2021/07/27 05:23:11;;;;;;;19.17;12.43;;;15.00;99.90;;;;;;5012923;28;20022;-72
2021/07/27 05:25:37;;;;;;;22.98;12.07;;;15.10;99.90;;;;;;5013352;28;20041;-71
2021/07/27 05:28:02;;;;;;;16.67;10.45;;;15.10;99.90;;;;;;4996624;28;20117;-71
2021/07/27 05:30:28;;;;;;;19.17;11.75;;;15.10;99.90;;;;;;5012476;28;20546;-73
2021/07/27 05:32:55;;;;;;;20.75;12.27;;;15.20;99.90;;;;;;5011620;28;20388;-72
2021/07/27 05:35:21;;;;;;;20.02;11.38;;;15.20;99.90;;;;;;5011425;28;20026;-71
2021/07/27 05:37:47;;;;;;;16.67;12.52;;;15.20;99.90;;;;;;5011900;28;20041;-72
2021/07/27 05:40:13;;;;;;;18.77;10.77;;;15.30;99.90;;;;;;5011778;28;20103;-72
2021/07/27 05:42:39;;;;;;;20.05;11.70;;;15.40;99.90;;;;;;5009880;28;20068;-72
2021/07/27 05:45:05;;;;;;;16.17;8.90;;;15.40;99.90;;;;;;5000337;28;20026;-72
2021/07/27 05:47:31;;;;;;;11.75;8.77;;;15.30;99.90;;;;;;4993410;28;20030;-72
2021/07/27 05:49:56;;;;;;;13.43;9.10;;;15.30;99.90;;;;;;5009832;28;20025;-71
2021/07/27 05:52:22;;;;;;;21.48;7.50;;;15.40;99.90;;;;;;5010325;28;20384;-72
2021/07/27 05:54:47;;;;;;;8.32;7.00;;;15.40;99.90;;;;;;5004903;28;20022;-72
2021/07/27 05:57:14;;;;;;;17.20;7.18;;;15.50;99.90;;;;;;5011560;28;20033;-74
2021/07/27 05:59:42;;;;;;;10.63;7.05;;;15.60;99.90;;;;;;4998396;28;20081;-73
2021/07/27 06:02:08;;;;;;;14.32;7.40;;;16.10;99.90;;;;;;4991833;28;20049;-73
2021/07/27 06:04:34;;;;;;;14.20;7.15;;;16.40;99.90;;;;;;4991437;28;20034;-73
2021/07/27 06:07:01;;;;;;;11.30;7.30;;;16.70;99.90;;;;;;4992242;28;20058;-73
2021/07/27 06:09:27;;;;;;;10.52;6.60;;;16.90;99.90;;;;;;4999587;28;20026;-73
2021/07/27 06:11:52;;;;;;;12.50;6.18;;;16.90;99.90;;;;;;5000750;28;20022;-75
2021/07/27 06:14:18;;;;;;;12.10;5.68;;;17.00;99.90;;;;;;4993000;28;20026;-74
2021/07/27 06:16:44;;;;;;;7.65;5.45;;;17.10;99.90;;;;;;5000934;28;20030;-72
2021/07/27 06:19:10;;;;;;;13.35;5.43;;;17.30;99.90;;;;;;5010729;28;20539;-74
2021/07/27 06:21:40;;;;;;;12.82;4.80;;;17.50;99.90;;;;;;5007383;28;20031;-72
2021/07/27 06:24:09;;;;;;;12.85;5.50;;;17.60;99.90;;;;;;5005562;28;20053;-71
2021/07/27 06:26:36;;;;;;;9.77;5.50;;;17.60;99.90;;;;;;5010629;28;20057;-71
2021/07/27 06:29:03;;;;;;;10.18;5.00;;;17.40;99.90;;;;;;5011751;28;20018;-72
2021/07/27 06:31:29;;;;;;;7.13;5.32;;;17.40;99.90;;;;;;5011523;28;20029;-71
2021/07/27 06:33:55;;;;;;;12.52;5.55;;;17.30;99.90;;;;;;4989629;28;20038;-71
2021/07/27 06:36:21;;;;;;;9.07;5.25;;;17.30;99.90;;;;;;4984179;28;20084;-72
2021/07/27 06:38:46;;;;;;;15.13;5.50;;;17.40;99.90;;;;;;4978345;28;20452;-72
2021/07/27 06:41:13;;;;;;;6.05;5.20;;;17.30;99.90;;;;;;5011495;28;20032;-70
2021/07/27 06:43:41;;;;;;;13.23;5.50;;;17.40;99.90;;;;;;5010269;28;20061;-71
2021/07/27 06:46:09;;;;;;;9.82;5.35;;;17.50;99.90;;;;;;5010720;28;20025;-72
2021/07/27 06:48:35;;;;;;;9.35;5.88;;;17.70;99.90;;;;;;5011455;28;20619;-71
2021/07/27 06:51:13;;;;;;;7.53;5.55;;;17.90;99.90;;;;;;5011517;28;20045;-70
2021/07/27 06:53:40;;;;;;;9.77;5.65;;;17.90;99.90;;;;;;5011796;28;20081;-71
2021/07/27 06:56:06;;;;;;;9.75;5.97;;;17.90;99.90;;;;;;4992901;28;20044;-71
2021/07/27 06:58:32;;;;;;;12.88;5.32;;;17.90;99.90;;;;;;5011756;28;20026;-70
2021/07/27 07:01:09;;;;;;;7.50;5.25;;;18.10;99.90;;;;;;5011729;28;20102;-71
2021/07/27 07:03:39;;;;;;;8.60;5.25;;;18.10;99.90;;;;;;5011138;28;20541;-71
2021/07/27 07:06:04;;;;;;;9.25;4.75;;;18.20;99.90;;;;;;5013035;28;20038;-71
2021/07/27 07:08:30;;;;;;;8.13;5.13;;;18.30;99.90;;;;;;5014473;28;20057;-71
2021/07/27 07:11:00;;;;;;;8.23;5.60;;;18.50;99.90;;;;;;5016447;28;20026;-71
2021/07/27 07:13:27;;;;;;;11.18;5.65;;;18.70;99.90;;;;;;5019838;28;20026;-70
2021/07/27 07:15:53;;;;;;;7.68;4.85;;;18.50;99.90;;;;;;5001115;28;20037;-71
2021/07/27 07:18:20;;;;;;;6.50;4.70;;;18.60;99.90;;;;;;4996297;28;20492;-71
2021/07/27 07:20:45;;;;;;;11.05;4.93;;;18.70;99.90;;;;;;4994976;28;20105;-71
2021/07/27 07:23:11;;;;;;;11.70;5.07;;;18.90;99.90;;;;;;4994989;28;20078;-71
2021/07/27 07:25:39;;;;;;;10.27;5.13;;;19.20;99.90;;;;;;4994308;28;20033;-71
2021/07/27 07:28:08;;;;;;;8.55;4.90;;;19.30;99.90;;;;;;4994628;28;20077;-71
2021/07/27 07:30:34;;;;;;;9.05;4.78;;;19.50;99.90;;;;;;4995849;28;20050;-71
2021/07/27 07:33:00;;;;;;;5.43;4.88;;;19.70;99.90;;;;;;4996072;28;20084;-72
2021/07/27 07:35:29;;;;;;;9.23;5.45;;;19.80;99.90;;;;;;4995085;28;20025;-72
2021/07/27 07:37:55;;;;;;;7.80;4.57;;;19.80;99.90;;;;;;4994964;28;20088;-71
2021/07/27 07:40:21;;;;;;;6.90;5.03;;;19.80;99.90;;;;;;4994581;28;20030;-70
2021/07/27 07:42:47;;;;;;;10.43;4.47;;;20.20;99.90;;;;;;4994440;28;20030;-72
2021/07/27 07:45:13;;;;;;;5.25;4.63;;;20.30;99.90;;;;;;5006874;28;20542;-70
2021/07/27 07:47:42;;;;;;;7.72;4.78;;;20.10;99.90;;;;;;5014189;28;20026;-73
2021/07/27 07:50:08;;;;;;;7.13;4.55;;;20.40;99.90;;;;;;5013864;28;20088;-72
2021/07/27 07:52:34;;;;;;;6.50;4.07;;;20.30;99.90;;;;;;5013823;28;20044;-73
2021/07/27 07:55:05;;;;;;;5.80;4.57;;;20.40;99.90;;;;;;5012012;28;20022;-73
2021/07/27 07:57:32;;;;;;;6.10;4.72;;;20.80;99.90;;;;;;4996536;28;20022;-71
2021/07/27 08:00:00;;;;;;;8.10;4.35;;;21.40;99.90;;;;;;5014190;28;20403;-72
2021/07/27 08:02:29;;;;;;;7.75;4.40;;;21.80;99.90;;;;;;4995568;28;20471;-71
2021/07/27 08:04:55;;;;;;;9.30;3.63;;;22.00;99.90;;;;;;5013320;28;20145;-71
2021/07/27 08:07:21;;;;;;;5.78;4.60;;;21.80;99.90;;;;;;5014133;28;20113;-71
2021/07/27 08:09:47;;;;;;;8.00;4.13;;;21.90;99.90;;;;;;5012285;28;20065;-71
2021/07/27 08:12:16;;;;;;;6.85;4.20;;;21.70;99.90;;;;;;4994225;28;20026;-71
2021/07/27 08:14:45;;;;;;;7.40;4.68;;;21.70;99.90;;;;;;4993429;28;20101;-70
2021/07/27 08:17:12;;;;;;;9.18;4.32;;;22.00;99.90;;;;;;4993903;28;20378;-71
2021/07/27 08:19:38;;;;;;;5.45;3.95;;;22.50;99.90;;;;;;4993868;28;20026;-71
2021/07/27 08:22:05;;;;;;;10.60;4.68;;;23.10;99.90;;;;;;4992896;28;20539;-72
2021/07/27 08:24:32;;;;;;;7.53;4.80;;;23.50;99.90;;;;;;4993455;28;20112;-72
2021/07/27 08:26:58;;;;;;;6.65;4.05;;;24.20;99.90;;;;;;5008281;28;20173;-71
2021/07/27 08:29:23;;;;;;;6.50;4.13;;;24.00;99.90;;;;;;5013821;28;20097;-71
2021/07/27 08:31:50;;;;;;;5.53;4.38;;;23.80;99.90;;;;;;5013923;28;20022;-73
2021/07/27 08:34:17;;;;;;;4.53;3.78;;;23.80;99.90;;;;;;5013643;28;20037;-71
2021/07/27 08:36:46;;;;;;;5.13;4.63;;;23.60;99.90;;;;;;5014442;28;20341;-73
2021/07/27 08:39:13;;;;;;;5.18;3.70;;;24.30;99.90;;;;;;5012968;28;20117;-71
2021/07/27 08:41:40;;;;;;;4.95;4.10;;;24.80;99.90;;;;;;5013489;28;20037;-71
2021/07/27 08:44:17;;;;;;;5.93;3.85;;;24.60;99.90;;;;;;5013404;28;20034;-71
2021/07/27 08:46:47;;;;;;;5.65;4.00;;;24.40;99.90;;;;;;5014106;28;20029;-72
2021/07/27 08:49:15;;;;;;;4.18;3.80;;;24.20;99.90;;;;;;5013639;28;20025;-71
2021/07/27 08:51:43;;;;;;;4.78;4.20;;;24.20;99.90;;;;;;5009119;28;20078;-73
2021/07/27 08:54:09;;;;;;;81.40;14.25;;;24.30;99.90;;;;;;4976230;28;20077;-70
2021/07/27 08:56:43;;;;;;;162.35;22.13;;;24.10;99.90;;;;;;4993073;28;20038;-72
2021/07/27 08:59:10;;;;;;;48.35;7.82;;;23.80;99.90;;;;;;4994391;28;20035;-72
2021/07/27 09:01:36;;;;;;;13.35;4.32;;;24.20;99.90;;;;;;5000259;28;20042;-72
2021/07/27 09:04:02;;;;;;;7.97;3.55;;;24.10;99.90;;;;;;5015924;28;20017;-71
2021/07/27 09:06:28;;;;;;;4.10;3.58;;;23.90;99.90;;;;;;5002856;28;20525;-71
2021/07/27 09:09:07;;;;;;;4.03;3.53;;;23.70;99.90;;;;;;4993351;28;20543;-72
2021/07/27 09:11:44;;;;;;;4.22;3.63;;;24.10;99.90;;;;;;4989932;28;20033;-70
2021/07/27 09:14:14;;;;;;;8.27;3.60;;;24.60;99.90;;;;;;5021105;28;20550;-71
2021/07/27 09:16:46;;;;;;;4.65;3.60;;;25.50;99.90;;;;;;5010372;28;20030;-72
2021/07/27 09:19:12;;;;;;;22.33;4.97;;;26.30;99.90;;;;;;4992785;28;20026;-71
2021/07/27 09:21:41;;;;;;;9.57;4.28;;;27.20;99.90;;;;;;4995588;28;20353;-71
2021/07/27 09:24:07;;;;;;;91.90;11.32;;;27.30;99.90;;;;;;5011501;28;20116;-71
2021/07/27 09:26:33;;;;;;;7.63;3.55;;;27.00;99.90;;;;;;5011615;28;20113;-72
2021/07/27 09:29:05;;;;;;;4.20;3.40;;;27.60;99.90;;;;;;5012440;28;20033;-71
2021/07/27 09:31:32;;;;;;;3.50;3.25;;;27.80;99.90;;;;;;5012634;28;20053;-71
2021/07/27 09:34:09;;;;;;;7.32;2.88;;;28.70;99.90;;;;;;5012042;28;20034;-72
2021/07/27 09:36:34;;;;;;;4.53;3.00;;;29.20;99.30;;;;;;5012344;28;20049;-71
2021/07/27 09:39:02;;;;;;;3.38;3.10;;;29.80;98.30;;;;;;5010639;28;20607;-71
2021/07/27 09:41:29;;;;;;;3.53;3.22;;;30.70;97.10;;;;;;5012098;28;20056;-69
2021/07/27 09:43:56;;;;;;;8.13;3.50;;;30.40;97.40;;;;;;5012056;28;20022;-69
2021/07/27 09:46:23;;;;;;;117.28;14.65;;;30.30;95.80;;;;;;4993664;28;20052;-70
2021/07/27 09:48:51;;;;;;;56.58;8.85;;;30.50;96.30;;;;;;5011137;28;20041;-70
2021/07/27 09:51:17;;;;;;;7.45;3.97;;;31.50;95.40;;;;;;4994537;28;20025;-70
2021/07/27 09:53:45;;;;;;;5.03;3.38;;;31.90;94.60;;;;;;5011556;28;20401;-71
2021/07/27 09:56:11;;;;;;;5.57;3.40;;;30.60;93.20;;;;;;4992663;28;20492;-70
2021/07/27 09:58:38;;;;;;;5.47;2.90;;;30.40;92.80;;;;;;5011994;28;20109;-69
2021/07/27 10:01:13;;;;;;;3.22;2.92;;;28.90;94.80;;;;;;5012406;28;20523;-71
2021/07/27 10:04:01;;;;;;;5.65;3.05;;;28.00;95.40;;;;;;5011959;28;20044;-70
2021/07/27 10:06:30;;;;;;;5.85;3.13;;;28.70;94.80;;;;;;5011195;28;20076;-71
2021/07/27 10:08:58;;;;;;;5.68;2.72;;;29.40;95.90;;;;;;5011656;28;20122;-70
2021/07/27 10:11:44;;;;;;;8.38;3.08;;;30.40;94.70;;;;;;4998571;28;20093;-70
2021/07/27 10:14:11;;;;;;;4.38;2.95;;;31.80;93.50;;;;;;4992196;28;20432;-71
2021/07/27 10:16:38;;;;;;;4.80;3.58;;;32.30;92.80;;;;;;4989950;28;20048;-71
2021/07/27 10:19:36;;;;;;;3.10;2.80;;;32.10;90.10;;;;;;4994976;28;20109;-70
2021/07/27 10:22:03;;;;;;;3.33;2.90;;;31.90;86.70;;;;;;5008809;28;20136;-72
2021/07/27 10:24:41;;;;;;;5.07;3.03;;;31.20;88.30;;;;;;5001324;28;20552;-71
2021/07/27 10:27:29;;;;;;;3.17;2.97;;;31.50;91.00;;;;;;5011543;28;20029;-71
2021/07/27 10:30:15;;;;;;;5.90;3.35;;;31.70;89.60;;;;;;5004594;28;20077;-71
2021/07/27 10:32:52;;;;;;;38.65;6.80;;;30.50;90.00;;;;;;5011161;28;20567;-71
2021/07/27 10:35:26;;;;;;;5.10;3.20;;;29.70;91.80;;;;;;4995592;28;20022;-71
2021/07/27 10:37:52;;;;;;;5.30;3.60;;;30.00;90.80;;;;;;4991161;28;20033;-72
2021/07/27 10:40:30;;;;;;;5.00;3.70;;;29.70;91.80;;;;;;4992349;28;20076;-71
2021/07/27 10:42:56;;;;;;;3.63;2.83;;;29.40;92.10;;;;;;4991708;28;20082;-71
2021/07/27 10:45:22;;;;;;;3.85;3.38;;;29.40;91.20;;;;;;4992520;28;20425;-72
2021/07/27 10:47:50;;;;;;;4.32;3.30;;;29.80;92.90;;;;;;4995495;28;20358;-71
2021/07/27 10:50:16;;;;;;;3.72;3.42;;;29.50;91.40;;;;;;5010100;28;20026;-72
2021/07/27 10:52:48;;;;;;;6.55;3.30;;;29.60;91.40;;;;;;5014900;28;20033;-71
2021/07/27 10:55:14;;;;;;;4.95;3.85;;;29.70;91.20;;;;;;5012608;28;20033;-70
2021/07/27 10:57:52;;;;;;;3.70;3.40;;;29.40;91.40;;;;;;5008242;28;20030;-71
2021/07/27 11:00:17;;;;;;;3.10;2.90;;;29.20;91.50;;;;;;5009829;28;20037;-70
2021/07/27 11:02:43;;;;;;;3.10;2.90;;;29.00;92.00;;;;;;5010034;28;20025;-70
2021/07/27 11:05:09;;;;;;;3.53;3.22;;;28.90;91.10;;;;;;5014358;28;20026;-69
2021/07/27 11:07:35;;;;;;;3.40;3.10;;;29.20;90.10;;;;;;4998874;28;20065;-70
2021/07/27 11:10:03;;;;;;;3.15;2.95;;;29.90;90.60;;;;;;4993863;28;20027;-70
2021/07/27 11:12:41;;;;;;;4.13;3.72;;;30.40;91.30;;;;;;4995312;28;20053;-70
2021/07/27 11:15:10;;;;;;;3.88;3.03;;;30.80;88.20;;;;;;4994792;28;20081;-70
2021/07/27 11:17:51;;;;;;;3.80;3.20;;;30.70;90.40;;;;;;4995337;28;20497;-70
2021/07/27 11:20:30;;;;;;;3.63;3.33;;;30.10;85.70;;;;;;4995203;28;20117;-71
2021/07/27 11:22:59;;;;;;;3.30;2.97;;;29.60;90.80;;;;;;4995036;28;20421;-71
2021/07/27 11:25:26;;;;;;;3.33;3.03;;;30.00;90.50;;;;;;4994755;28;20034;-70
2021/07/27 11:27:52;;;;;;;3.78;3.47;;;28.40;90.50;;;;;;4995371;28;20484;-70
2021/07/27 11:30:21;;;;;;;5.15;3.33;;;28.40;91.40;;;;;;4977620;28;20026;-70
2021/07/27 11:32:51;;;;;;;4.85;3.38;;;27.60;91.50;;;;;;4995224;28;20553;-71
2021/07/27 11:35:22;;;;;;;25.35;5.85;;;27.30;92.90;;;;;;4976816;28;20094;-71
2021/07/27 11:38:01;;;;;;;34.25;6.88;;;27.80;93.30;;;;;;4994770;28;20030;-70
2021/07/27 11:40:28;;;;;;;4.90;3.53;;;27.60;90.60;;;;;;4994756;28;20568;-70
2021/07/27 11:43:06;;;;;;;9.85;3.92;;;27.40;92.90;;;;;;4977629;28;20122;-71
2021/07/27 11:45:33;;;;;;;5.47;3.85;;;28.10;92.00;;;;;;4994622;28;20033;-70
2021/07/27 11:47:59;;;;;;;3.40;3.10;;;28.00;92.20;;;;;;5001367;28;20018;-69
2021/07/27 11:50:29;;;;;;;4.55;3.60;;;28.00;92.70;;;;;;5014701;28;20030;-72
2021/07/27 11:53:06;;;;;;;6.43;3.47;;;27.40;91.50;;;;;;5014433;28;20532;-70
2021/07/27 11:55:42;;;;;;;4.50;3.22;;;27.10;95.10;;;;;;5004802;28;20053;-70
2021/07/27 11:58:08;;;;;;;3.63;3.25;;;27.10;92.00;;;;;;4995849;28;20049;-70
2021/07/27 12:00:36;;;;;;;5.18;3.72;;;27.40;93.30;;;;;;4997113;28;20062;-70
2021/07/27 12:03:05;;;;;;;3.72;3.42;;;27.90;93.40;;;;;;4997488;28;20029;-69
2021/07/27 12:05:31;;;;;;;4.60;3.85;;;27.70;91.90;;;;;;4995888;28;20101;-69
2021/07/27 12:07:58;;;;;;;8.25;3.88;;;27.30;93.60;;;;;;4997807;28;20026;-70
2021/07/27 12:10:24;;;;;;;3.60;3.30;;;27.00;93.70;;;;;;5003057;28;20499;-69
2021/07/27 12:12:50;;;;;;;3.95;3.60;;;26.80;94.90;;;;;;5001409;28;20026;-70
2021/07/27 12:15:17;;;;;;;5.82;4.22;;;26.80;94.90;;;;;;4999614;28;20026;-69
2021/07/27 12:17:43;;;;;;;4.30;3.90;;;27.20;95.10;;;;;;5000172;28;20037;-71
2021/07/27 12:20:12;;;;;;;4.72;4.15;;;27.50;94.80;;;;;;5014171;28;20113;-69
2021/07/27 12:22:37;;;;;;;5.82;3.80;;;27.50;94.30;;;;;;5013371;28;20022;-70
2021/07/27 12:25:04;;;;;;;8.05;4.38;;;27.40;92.30;;;;;;4995161;28;20033;-70
2021/07/27 12:27:30;;;;;;;5.95;4.20;;;27.20;92.70;;;;;;5013454;28;20065;-71
2021/07/27 12:29:56;;;;;;;5.32;4.13;;;27.10;93.60;;;;;;5012606;28;20041;-71
2021/07/27 12:32:22;;;;;;;5.18;3.58;;;27.50;96.10;;;;;;5013130;28;20531;-71
2021/07/27 12:34:48;;;;;;;5.03;3.75;;;28.20;94.30;;;;;;5012540;28;20030;-70
2021/07/27 12:37:14;;;;;;;5.70;3.70;;;29.10;91.50;;;;;;5013529;28;20033;-71
2021/07/27 12:39:39;;;;;;;4.60;3.78;;;29.40;93.10;;;;;;5013434;28;20038;-71
2021/07/27 12:42:05;;;;;;;6.10;3.72;;;29.30;89.70;;;;;;5014509;28;20030;-72
2021/07/27 12:44:31;;;;;;;4.75;4.00;;;29.10;90.80;;;;;;4996035;28;20034;-72
2021/07/27 12:46:59;;;;;;;4.10;3.70;;;29.40;93.50;;;;;;5013218;28;20132;-71
2021/07/27 12:49:25;;;;;;;4.10;3.70;;;30.40;92.80;;;;;;5013485;28;20081;-71
2021/07/27 12:51:51;;;;;;;7.90;3.97;;;30.50;91.00;;;;;;5013938;28;20041;-72
2021/07/27 12:54:16;;;;;;;4.40;3.50;;;30.40;90.20;;;;;;5012886;28;20022;-71
2021/07/27 12:56:42;;;;;;;6.22;3.90;;;30.00;88.00;;;;;;4994329;28;20036;-71
2021/07/27 12:59:08;;;;;;;5.28;4.00;;;29.80;88.40;;;;;;4993523;28;20046;-71
2021/07/27 13:01:34;;;;;;;5.30;4.45;;;29.30;89.00;;;;;;5012905;28;20088;-72
2021/07/27 13:04:01;;;;;;;6.18;4.05;;;29.60;89.20;;;;;;5012200;28;20032;-71
2021/07/27 13:06:27;;;;;;;4.03;3.63;;;30.20;90.40;;;;;;4994439;28;20028;-70